Brunson, SC (29911)

10:46 AM EST on February 07, 2016 (GMT -0500)
Joe Miley Road | | Change Station
CLOSE
Current Station
Personal Weather Station
Location: Brunson, SC
Elevation: 135 ft
Nearby Weather Stations
Active Advisory: Flood Warning

Elev 135 ft 32.94 °N, 81.13 °W | Updated 6 minutes ago

Partly Cloudy
Partly Cloudy
43.5 °F
Feels Like 44 °F
N
2.2
Wind Variable Wind from WNW

Today
High -- | Low -- °F
--% Chance of Precip.
Yesterday
High -- | Low -- °F
Precip. -- in
Pressure 30.06 in
Visibility 10.0 miles
Clouds Overcast 4300 ft
Windchill 44 °F
Dew Point 34 °F
Humidity 70%
Rainfall 0.32 in
Snow Depth Not available.
7:15 AM 6:02 PM
Waning Crescent, 1% visible
METAR KJYL 071535Z AUTO 34008KT 10SM OVC043 07/01 A3006 RMK AO2 T00720005
Pressure 30.06 in
Visibility 10.0 miles
Clouds Overcast 4300 ft
Windchill 44 °F
Dew Point 34 °F
Humidity 70%
Rainfall 0.32 in
Snow Depth Not available.
7:15 AM 6:02 PM
Waning Crescent, 1% visible
METAR KJYL 071535Z AUTO 34008KT 10SM OVC043 07/01 A3006 RMK AO2 T00720005

10-Day Weather Forecast

Almanac

Astronomy

Feb. 07, 2016 Rise Set
Actual Time
Civil Twilight
Nautical Twilight
Astronomical Twilight
Moon
Length of Visible Light
Length of Day
Tomorrow will be .
, % of the Moon is Illuminated

Today's Extremes

State Highs State Lows

Community

WunderPhotos

Upload Photos

1,891,216 photos uploaded!

WunderBlog® & News

Nearby

Air Quality

  Air Quality AQ Index Pollutant
Not available.

Snow Depth

Station Depth Elevation

Earthquake Activity

City Distance Mag. Time & Date
Minimum magnitude displayed is 2.5.

Coastal Water Temperatures

Place Temperature

Stations

Nearby Weather Stations

Station Location Temp. Windchill Dew Point Humidity Wind Precip. Elev Updated Type
                   

Watches & Warnings

Flood Warning
Issued: 10:35 AM EST Feb. 7, 2016 – National Weather Service

The Flood Warning continues for
the Savannah River near Clyo.
* At 10 am Sunday the stage was 16.3 feet.
* Flood stage is 11.0 feet.
* Moderate flooding is occurring.
* Forecast, the river will continue to fall.
* At 14.5 feet, the bottom floor of several riverfront homes along Tom
goethe Road begins to flood.


Lat... Lon 3273 8145 3276 8137 3264 8136 3249 8117
          3246 8125 3261 8144